createdAt,value
2023-02-05T00:02:10.065Z,8.32
2023-02-05T00:04:37.572Z,9.35
2023-02-05T00:07:04.940Z,9.05
2023-02-05T00:09:32.670Z,8.77
2023-02-05T00:12:00.012Z,7.50
2023-02-05T00:14:27.569Z,9.55
2023-02-05T00:16:58.579Z,8.73
2023-02-05T00:19:25.847Z,7.93
2023-02-05T00:21:53.135Z,8.75
2023-02-05T00:24:20.473Z,8.02
2023-02-05T00:26:47.858Z,8.77
2023-02-05T00:29:15.137Z,8.68
2023-02-05T00:31:42.467Z,8.82
2023-02-05T00:34:10.085Z,7.93
2023-02-05T00:36:37.365Z,8.82
2023-02-05T00:39:04.737Z,8.32
2023-02-05T00:41:31.928Z,8.93
2023-02-05T00:43:59.514Z,9.10
2023-02-05T00:46:27.501Z,8.23
2023-02-05T00:48:54.797Z,9.43
2023-02-05T00:51:22.005Z,9.00
2023-02-05T00:53:49.277Z,9.05
2023-02-05T00:56:16.625Z,8.75
2023-02-05T00:58:49.136Z,8.00
2023-02-05T01:01:16.703Z,8.50
2023-02-05T01:03:44.026Z,9.23
2023-02-05T01:06:11.634Z,9.00
2023-02-05T01:08:39.960Z,8.48
2023-02-05T01:11:08.566Z,9.45
2023-02-05T01:13:37.747Z,8.68
2023-02-05T01:16:05.672Z,9.75
2023-02-05T01:18:33.221Z,8.88
2023-02-05T01:21:00.864Z,10.63
2023-02-05T01:23:28.147Z,13.80
2023-02-05T01:25:55.453Z,13.43
2023-02-05T01:28:23.086Z,12.98
2023-02-05T01:30:50.740Z,14.23
2023-02-05T01:35:48.574Z,12.98
2023-02-05T01:38:15.884Z,13.52
2023-02-05T01:40:44.696Z,15.77
2023-02-05T01:43:16.201Z,16.88
2023-02-05T01:45:50.776Z,17.92
2023-02-05T01:48:23.927Z,14.55
2023-02-05T01:50:57.376Z,13.90
2023-02-05T01:53:29.978Z,15.55
2023-02-05T01:55:58.939Z,15.73
2023-02-05T01:58:26.986Z,15.82
2023-02-05T02:00:54.205Z,17.40
2023-02-05T02:03:21.418Z,18.50
2023-02-05T02:05:48.721Z,18.67
2023-02-05T02:08:16.018Z,18.73
2023-02-05T02:10:43.589Z,14.30
2023-02-05T02:13:11.365Z,16.10
2023-02-05T02:15:38.733Z,16.05
2023-02-05T02:18:27.650Z,14.80
2023-02-05T02:21:10.400Z,11.77
2023-02-05T02:24:11.823Z,11.90
2023-02-05T02:26:42.698Z,12.00
2023-02-05T02:29:13.404Z,12.57
2023-02-05T02:32:33.036Z,11.75
2023-02-05T02:35:25.412Z,10.93
2023-02-05T02:38:17.119Z,10.80
2023-02-05T02:40:55.010Z,10.43
2023-02-05T02:43:45.044Z,13.13
2023-02-05T02:46:37.751Z,12.43
2023-02-05T02:49:06.459Z,12.45
2023-02-05T02:51:34.515Z,11.57
2023-02-05T02:54:04.605Z,11.02
2023-02-05T02:56:31.846Z,12.20
2023-02-05T02:59:06.439Z,10.35
2023-02-05T03:01:34.883Z,9.63
2023-02-05T03:04:08.803Z,10.82
2023-02-05T03:06:36.087Z,10.02
2023-02-05T03:09:18.232Z,7.75
2023-02-05T03:11:45.538Z,7.80
2023-02-05T03:14:13.383Z,8.75
2023-02-05T03:16:40.594Z,9.82
2023-02-05T03:19:08.072Z,12.52
2023-02-05T03:21:38.489Z,9.18
2023-02-05T03:24:06.058Z,11.30
2023-02-05T03:26:38.335Z,9.43
2023-02-05T03:29:07.258Z,9.18
2023-02-05T03:31:49.717Z,8.90
2023-02-05T03:34:19.651Z,11.40
2023-02-05T03:36:50.059Z,11.70
2023-02-05T03:39:40.072Z,11.82
2023-02-05T03:42:18.147Z,7.43
2023-02-05T03:45:03.198Z,7.10
2023-02-05T03:47:49.746Z,7.78
2023-02-05T03:51:15.678Z,8.00
2023-02-05T03:54:06.446Z,8.00
2023-02-05T03:56:56.037Z,7.40
2023-02-05T03:59:23.269Z,6.35
2023-02-05T04:01:50.779Z,6.63
2023-02-05T04:04:18.014Z,7.93
2023-02-05T04:06:46.925Z,7.43
2023-02-05T04:09:14.427Z,6.45
2023-02-05T04:11:41.661Z,7.47
2023-02-05T04:14:09.510Z,6.80
2023-02-05T04:16:36.981Z,7.40
2023-02-05T04:19:04.365Z,8.93
2023-02-05T04:21:31.610Z,8.93
2023-02-05T04:23:58.869Z,8.27
2023-02-05T04:26:26.190Z,7.18
2023-02-05T04:28:53.425Z,7.43
2023-02-05T04:31:20.635Z,6.57
2023-02-05T04:33:48.105Z,7.85
2023-02-05T04:36:15.460Z,6.05
2023-02-05T04:38:42.818Z,7.53
2023-02-05T04:41:10.096Z,7.07
2023-02-05T04:43:37.737Z,7.28
2023-02-05T04:46:08.706Z,6.38
2023-02-05T04:48:36.209Z,6.93
2023-02-05T04:51:11.078Z,6.68
2023-02-05T04:53:39.614Z,7.10
2023-02-05T04:56:11.658Z,6.82
2023-02-05T04:58:38.951Z,5.60
2023-02-05T05:01:17.083Z,6.85
2023-02-05T05:03:44.797Z,6.85
2023-02-05T05:06:12.789Z,7.20
2023-02-05T05:08:40.675Z,6.53
2023-02-05T05:11:17.327Z,6.65
2023-02-05T05:13:44.998Z,6.60
2023-02-05T05:16:12.309Z,7.03
2023-02-05T05:18:39.771Z,5.57
2023-02-05T05:21:07.269Z,6.85
2023-02-05T05:23:35.826Z,6.18
2023-02-05T05:26:09.823Z,5.88
2023-02-05T05:28:37.334Z,7.60
2023-02-05T05:31:13.520Z,6.75
2023-02-05T05:33:40.893Z,6.78
2023-02-05T05:36:08.550Z,6.82
2023-02-05T05:38:36.080Z,5.75
2023-02-05T05:41:22.464Z,6.97
2023-02-05T05:43:49.949Z,6.25
2023-02-05T05:46:26.351Z,6.38
2023-02-05T05:48:58.734Z,6.57
2023-02-05T05:51:26.827Z,6.57
2023-02-05T05:53:54.562Z,6.13
2023-02-05T05:56:21.950Z,6.15
2023-02-05T05:58:49.268Z,5.97
2023-02-05T06:01:17.598Z,6.28
2023-02-05T06:03:44.852Z,5.43
2023-02-05T06:06:12.222Z,6.43
2023-02-05T06:08:39.621Z,6.45
2023-02-05T06:11:06.939Z,6.35
2023-02-05T06:13:34.998Z,5.97
2023-02-05T06:16:02.657Z,6.13
2023-02-05T06:18:30.946Z,4.72
2023-02-05T06:20:58.332Z,5.75
2023-02-05T06:23:25.571Z,6.15
2023-02-05T06:25:52.903Z,6.75
2023-02-05T06:28:20.348Z,6.30
2023-02-05T06:30:47.726Z,7.45
2023-02-05T06:33:15.124Z,6.43
2023-02-05T06:35:42.442Z,6.97
2023-02-05T06:38:09.979Z,9.43
2023-02-05T06:40:37.609Z,8.38
2023-02-05T06:43:05.105Z,7.63
2023-02-05T06:45:32.854Z,6.82
2023-02-05T06:48:00.339Z,7.55
2023-02-05T06:50:27.682Z,7.60
2023-02-05T06:52:54.949Z,6.70
2023-02-05T06:55:22.686Z,6.82
2023-02-05T06:57:49.992Z,7.47
2023-02-05T07:00:17.530Z,6.82
2023-02-05T07:02:44.891Z,6.80
2023-02-05T07:05:12.269Z,6.07
2023-02-05T07:07:39.818Z,6.55
2023-02-05T07:10:07.414Z,6.72
2023-02-05T07:12:34.750Z,6.60
2023-02-05T07:15:02.003Z,6.22
2023-02-05T07:17:29.807Z,6.85
2023-02-05T07:19:58.802Z,6.03
2023-02-05T07:22:26.237Z,6.45
2023-02-05T07:24:53.538Z,6.05
2023-02-05T07:27:21.065Z,6.53
2023-02-05T07:29:48.287Z,5.93
2023-02-05T07:32:15.788Z,7.20
2023-02-05T07:34:43.925Z,6.53
2023-02-05T07:37:13.113Z,7.22
2023-02-05T07:39:40.449Z,5.70
2023-02-05T07:42:07.772Z,6.22
2023-02-05T07:44:34.987Z,6.22
2023-02-05T07:47:02.347Z,5.03
2023-02-05T07:49:29.617Z,6.05
2023-02-05T07:51:57.475Z,6.28
2023-02-05T07:54:24.787Z,6.10
2023-02-05T07:56:52.027Z,7.22
2023-02-05T07:59:19.273Z,6.85
2023-02-05T08:01:46.599Z,6.90
2023-02-05T08:04:14.010Z,7.80
2023-02-05T08:06:41.792Z,6.93
2023-02-05T08:09:09.355Z,9.95
2023-02-05T08:11:36.697Z,9.68
2023-02-05T08:14:05.319Z,11.18
2023-02-05T08:16:33.344Z,11.75
2023-02-05T08:19:00.628Z,11.23
2023-02-05T08:21:27.869Z,9.10
2023-02-05T08:23:57.600Z,8.93
2023-02-05T08:26:24.802Z,8.75
2023-02-05T08:28:52.022Z,9.15
2023-02-05T08:31:19.832Z,10.38
2023-02-05T08:33:47.873Z,11.25
2023-02-05T08:36:15.206Z,10.55
2023-02-05T08:38:42.563Z,8.68
2023-02-05T08:41:13.407Z,8.57
2023-02-05T08:43:45.455Z,7.88
2023-02-05T08:46:14.413Z,9.00
2023-02-05T08:48:42.190Z,8.27
2023-02-05T08:51:10.761Z,8.25
2023-02-05T08:53:38.217Z,7.78
2023-02-05T08:56:06.415Z,7.85
2023-02-05T08:58:33.759Z,8.55
2023-02-05T09:01:02.934Z,7.93
2023-02-05T09:03:30.766Z,7.78
2023-02-05T09:05:58.963Z,6.43
2023-02-05T09:08:27.328Z,6.57
2023-02-05T09:10:54.695Z,7.50
2023-02-05T09:13:22.876Z,6.40
2023-02-05T09:15:51.074Z,5.88
2023-02-05T09:18:18.544Z,5.97
2023-02-05T09:20:47.209Z,6.55
2023-02-05T09:23:16.354Z,6.43
2023-02-05T09:25:43.617Z,4.90
2023-02-05T09:28:12.354Z,5.75
2023-02-05T09:30:42.983Z,5.70
2023-02-05T09:33:10.916Z,6.10
2023-02-05T09:35:38.176Z,6.85
2023-02-05T09:38:05.978Z,5.85
2023-02-05T09:40:48.248Z,5.88
2023-02-05T09:43:48.672Z,6.00
2023-02-05T09:46:40.459Z,5.95
2023-02-05T09:49:11.360Z,7.45
2023-02-05T09:51:44.077Z,7.18
2023-02-05T09:54:17.311Z,5.78
2023-02-05T09:56:44.867Z,7.57
2023-02-05T09:59:32.261Z,6.50
2023-02-05T10:02:01.032Z,7.35
2023-02-05T10:04:28.329Z,6.55
2023-02-05T10:07:07.808Z,6.57
2023-02-05T10:10:12.570Z,5.97
2023-02-05T10:13:12.302Z,5.88
2023-02-05T10:16:04.523Z,6.82
2023-02-05T10:18:34.885Z,7.68
2023-02-05T10:21:26.963Z,6.75
2023-02-05T10:24:31.698Z,5.45
2023-02-05T10:27:19.238Z,6.43
2023-02-05T10:29:58.090Z,5.18
2023-02-05T10:32:45.968Z,6.45
2023-02-05T10:35:44.371Z,5.85
2023-02-05T10:38:23.119Z,5.65
2023-02-05T10:40:51.946Z,6.28
2023-02-05T10:43:24.833Z,6.90
2023-02-05T10:45:52.489Z,6.57
2023-02-05T10:48:25.848Z,6.95
2023-02-05T10:51:04.202Z,5.68
2023-02-05T10:53:33.116Z,6.03
2023-02-05T10:56:01.065Z,5.35
2023-02-05T10:58:28.501Z,5.53
2023-02-05T11:00:55.708Z,5.00
2023-02-05T11:03:23.023Z,5.35
2023-02-05T11:05:50.324Z,6.35
2023-02-05T11:08:40.751Z,5.72
2023-02-05T11:11:22.728Z,6.10
2023-02-05T11:16:41.790Z,5.90
2023-02-05T11:19:27.036Z,6.55
2023-02-05T11:21:56.170Z,6.82
2023-02-05T11:24:33.875Z,7.55
2023-02-05T11:27:16.252Z,6.28
2023-02-05T11:29:43.553Z,5.70
2023-02-05T11:32:35.121Z,6.35
2023-02-05T11:35:20.347Z,6.22
2023-02-05T11:38:08.692Z,6.72
2023-02-05T11:40:36.409Z,5.90
2023-02-05T11:43:08.465Z,6.35
2023-02-05T11:45:37.840Z,6.22
2023-02-05T11:48:26.744Z,7.13
2023-02-05T11:50:53.969Z,6.72
2023-02-05T11:53:21.312Z,8.32
2023-02-05T11:55:54.138Z,8.35
2023-02-05T11:58:34.825Z,7.40
2023-02-05T12:01:23.965Z,6.63
2023-02-05T12:04:23.702Z,6.95
2023-02-05T12:06:53.580Z,8.68
2023-02-05T12:09:22.743Z,7.27
2023-02-05T12:12:27.176Z,5.95
2023-02-05T12:15:15.520Z,5.00
2023-02-05T12:18:06.650Z,5.00
2023-02-05T12:21:04.912Z,5.32
2023-02-05T12:23:32.170Z,4.15
2023-02-05T12:26:11.298Z,6.38
2023-02-05T12:29:13.042Z,6.85
2023-02-05T12:31:55.967Z,7.15
2023-02-05T12:34:27.998Z,6.60
2023-02-05T12:37:16.638Z,6.78
2023-02-05T12:39:54.553Z,6.13
2023-02-05T12:42:54.592Z,6.07
2023-02-05T12:45:57.190Z,6.15
2023-02-05T12:48:40.220Z,6.65
2023-02-05T12:51:48.340Z,5.38
2023-02-05T12:54:39.702Z,8.63
2023-02-05T12:57:19.005Z,8.60
2023-02-05T12:59:50.925Z,9.85
2023-02-05T13:02:46.321Z,6.57
2023-02-05T13:05:21.718Z,7.10
2023-02-05T13:08:00.900Z,6.43
2023-02-05T13:10:31.273Z,5.72
2023-02-05T13:13:00.689Z,7.83
2023-02-05T13:15:30.915Z,6.28
2023-02-05T13:18:05.409Z,6.15
2023-02-05T13:20:58.255Z,6.68
2023-02-05T13:23:43.969Z,6.20
2023-02-05T13:26:30.130Z,5.68
2023-02-05T13:29:00.248Z,7.43
2023-02-05T13:31:57.066Z,6.25
2023-02-05T13:34:26.365Z,5.65
2023-02-05T13:37:19.665Z,7.38
2023-02-05T13:40:08.799Z,7.28
2023-02-05T13:42:46.463Z,6.95
2023-02-05T13:45:23.284Z,7.07
2023-02-05T13:47:50.389Z,6.38
2023-02-05T13:50:42.496Z,6.57
2023-02-05T13:53:38.755Z,6.55
2023-02-05T13:56:19.775Z,7.72
2023-02-05T13:58:57.713Z,8.85
2023-02-05T14:01:44.849Z,8.63
2023-02-05T14:04:29.002Z,8.70
2023-02-05T14:06:58.680Z,9.07
2023-02-05T14:09:43.443Z,10.15
2023-02-05T14:12:12.764Z,9.73
2023-02-05T14:14:41.868Z,10.35
2023-02-05T14:17:27.575Z,10.65
2023-02-05T14:19:57.294Z,9.88
2023-02-05T14:22:43.924Z,9.15
2023-02-05T14:25:36.849Z,8.23
2023-02-05T14:28:24.514Z,8.05
2023-02-05T14:31:03.591Z,10.63
2023-02-05T14:33:41.768Z,14.27
2023-02-05T14:36:22.473Z,11.85
2023-02-05T14:39:03.372Z,8.77
2023-02-05T14:41:50.427Z,9.50
2023-02-05T14:44:23.597Z,8.88
2023-02-05T14:47:06.282Z,8.68
2023-02-05T14:49:35.013Z,7.85
2023-02-05T14:52:08.466Z,7.60
2023-02-05T14:54:57.308Z,8.10
2023-02-05T14:57:49.566Z,7.53
2023-02-05T15:00:27.597Z,7.03
2023-02-05T15:03:06.206Z,7.28
2023-02-05T15:05:49.125Z,6.72
2023-02-05T15:08:34.395Z,7.72
2023-02-05T15:11:15.611Z,8.25
2023-02-05T15:13:42.855Z,7.80
2023-02-05T15:16:14.185Z,8.10
2023-02-05T15:18:44.853Z,8.85
2023-02-05T15:21:15.774Z,8.85
2023-02-05T15:23:48.482Z,9.27
2023-02-05T15:26:39.918Z,10.27
2023-02-05T15:31:54.996Z,8.68
2023-02-05T15:34:25.238Z,10.88
2023-02-05T15:36:59.899Z,8.87
2023-02-05T15:39:44.813Z,9.25
2023-02-05T15:42:16.996Z,9.15
2023-02-05T15:44:44.226Z,9.45
2023-02-05T15:47:19.395Z,9.30
2023-02-05T15:49:51.921Z,9.60
2023-02-05T15:52:28.994Z,10.23
2023-02-05T15:54:57.839Z,9.02
2023-02-05T15:57:27.666Z,8.85
2023-02-05T15:59:55.150Z,7.97
2023-02-05T16:02:29.645Z,8.45
2023-02-05T16:04:58.841Z,7.55
2023-02-05T16:07:30.934Z,7.75
2023-02-05T16:09:59.688Z,9.25
2023-02-05T16:12:27.048Z,7.40
2023-02-05T16:15:01.929Z,7.82
2023-02-05T16:17:45.613Z,8.63
2023-02-05T16:20:39.505Z,7.47
2023-02-05T16:23:08.965Z,9.55
2023-02-05T16:26:05.556Z,7.63
2023-02-05T16:28:38.700Z,7.70
2023-02-05T16:31:06.070Z,8.02
2023-02-05T16:33:38.149Z,7.78
2023-02-05T16:36:07.477Z,7.45
2023-02-05T16:38:34.735Z,8.63
2023-02-05T16:41:37.383Z,8.52
2023-02-05T16:44:06.245Z,7.80
2023-02-05T16:46:35.076Z,8.30
2023-02-05T16:49:24.688Z,7.22
2023-02-05T16:51:55.284Z,7.68
2023-02-05T16:54:29.784Z,8.27
2023-02-05T16:57:08.566Z,7.30
2023-02-05T16:59:46.798Z,8.05
2023-02-05T17:02:42.759Z,6.57
2023-02-05T17:05:24.266Z,7.25
2023-02-05T17:08:01.327Z,7.05
2023-02-05T17:10:28.995Z,6.57
2023-02-05T17:13:05.210Z,7.28
2023-02-05T17:15:37.526Z,6.88
2023-02-05T17:18:43.236Z,6.70
2023-02-05T17:21:21.152Z,5.93
2023-02-05T17:23:52.026Z,7.10
2023-02-05T17:26:20.144Z,7.05
2023-02-05T17:28:51.565Z,7.97
2023-02-05T17:31:18.857Z,7.05
2023-02-05T17:33:52.189Z,7.60
2023-02-05T17:36:19.486Z,7.45
2023-02-05T17:38:48.711Z,7.20
2023-02-05T17:41:48.601Z,7.43
2023-02-05T17:44:16.148Z,5.65
2023-02-05T17:46:43.952Z,7.35
2023-02-05T17:49:11.301Z,7.05
2023-02-05T17:51:44.675Z,7.03
2023-02-05T17:54:16.048Z,6.97
2023-02-05T17:56:44.724Z,7.68
2023-02-05T17:59:12.815Z,7.90
2023-02-05T18:01:40.794Z,6.68
2023-02-05T18:04:08.054Z,7.22
2023-02-05T18:06:36.026Z,8.38
2023-02-05T18:09:03.453Z,8.07
2023-02-05T18:11:33.293Z,7.10
2023-02-05T18:14:01.311Z,7.85
2023-02-05T18:16:29.443Z,7.20
2023-02-05T18:18:57.032Z,6.97
2023-02-05T18:21:24.834Z,6.50
2023-02-05T18:23:55.101Z,7.18
2023-02-05T18:26:22.386Z,7.18
2023-02-05T18:28:51.329Z,7.40
2023-02-05T18:31:18.868Z,7.95
2023-02-05T18:33:47.834Z,7.13
2023-02-05T18:36:15.287Z,7.68
2023-02-05T18:38:45.274Z,8.27
2023-02-05T18:41:15.208Z,7.78
2023-02-05T18:43:42.739Z,8.00
2023-02-05T18:46:15.013Z,7.85
2023-02-05T18:48:42.396Z,7.28
2023-02-05T18:51:11.615Z,7.50
2023-02-05T18:53:39.797Z,6.90
2023-02-05T18:56:14.350Z,6.72
2023-02-05T18:58:41.791Z,7.65
2023-02-05T19:01:11.316Z,7.88
2023-02-05T19:03:40.746Z,8.25
2023-02-05T19:06:08.865Z,7.45
2023-02-05T19:08:37.329Z,8.63
2023-02-05T19:11:10.178Z,9.02
2023-02-05T19:13:37.597Z,9.27
2023-02-05T19:16:11.466Z,9.95
2023-02-05T19:18:40.188Z,9.10
2023-02-05T19:21:10.674Z,9.48
2023-02-05T19:23:38.329Z,11.85
2023-02-05T19:26:16.671Z,9.65
2023-02-05T19:28:44.692Z,11.38
2023-02-05T19:31:13.682Z,11.20
2023-02-05T19:33:41.120Z,11.02
2023-02-05T19:36:09.383Z,10.52
2023-02-05T19:38:37.707Z,9.88
2023-02-05T19:41:08.935Z,9.43
2023-02-05T19:43:36.497Z,11.20
2023-02-05T19:46:04.904Z,11.65
2023-02-05T19:48:33.003Z,9.57
2023-02-05T19:51:07.243Z,9.50
2023-02-05T19:53:34.992Z,9.80
2023-02-05T19:56:06.947Z,9.25
2023-02-05T19:58:34.861Z,13.27
2023-02-05T20:01:02.187Z,11.05
2023-02-05T20:03:29.849Z,10.98
2023-02-05T20:06:01.020Z,10.00
2023-02-05T20:08:29.410Z,8.27
2023-02-05T20:11:00.656Z,10.32
2023-02-05T20:13:29.101Z,10.75
2023-02-05T20:15:56.605Z,8.50
2023-02-05T20:18:24.054Z,8.48
2023-02-05T20:20:52.070Z,10.45
2023-02-05T20:23:21.089Z,9.98
2023-02-05T20:25:57.713Z,11.05
2023-02-05T20:28:27.567Z,9.70
2023-02-05T20:31:13.467Z,9.48
2023-02-05T20:33:40.909Z,8.77
2023-02-05T20:36:09.518Z,10.55
2023-02-05T20:38:36.869Z,8.73
2023-02-05T20:41:15.108Z,10.05
2023-02-05T20:43:42.443Z,10.32
2023-02-05T20:46:10.760Z,9.85
2023-02-05T20:48:38.679Z,8.50
2023-02-05T20:51:10.883Z,8.05
2023-02-05T20:53:38.610Z,8.85
2023-02-05T20:56:10.143Z,7.65
2023-02-05T20:58:38.791Z,8.32
2023-02-05T21:01:14.510Z,8.02
2023-02-05T21:03:44.019Z,7.13
2023-02-05T21:06:11.378Z,8.32
2023-02-05T21:08:44.304Z,8.27
2023-02-05T21:13:38.900Z,6.78
2023-02-05T21:16:06.834Z,6.68
2023-02-05T21:18:34.112Z,6.45
2023-02-05T21:21:08.057Z,7.35
2023-02-05T21:23:35.624Z,8.48
2023-02-05T21:26:02.990Z,6.97
2023-02-05T21:28:30.374Z,7.95
2023-02-05T21:31:02.510Z,7.05
2023-02-05T21:33:30.027Z,8.02
2023-02-05T21:35:57.874Z,7.70
2023-02-05T21:38:30.770Z,7.63
2023-02-05T21:40:58.664Z,7.15
2023-02-05T21:43:26.076Z,6.97
2023-02-05T21:45:53.346Z,7.57
2023-02-05T21:48:20.917Z,7.80
2023-02-05T21:50:48.228Z,7.90
2023-02-05T21:53:16.908Z,7.85
2023-02-05T21:55:44.129Z,6.88
2023-02-05T21:58:11.400Z,8.10
2023-02-05T22:00:39.846Z,6.05
2023-02-05T22:03:09.564Z,7.18
2023-02-05T22:05:40.401Z,6.57
2023-02-05T22:08:11.595Z,7.40
2023-02-05T22:10:39.134Z,8.35
2023-02-05T22:13:06.359Z,7.68
2023-02-05T22:15:34.020Z,7.50
2023-02-05T22:18:03.047Z,9.15
2023-02-05T22:20:30.382Z,8.02
2023-02-05T22:22:57.603Z,7.78
2023-02-05T22:25:24.979Z,9.05
2023-02-05T22:27:52.847Z,8.55
2023-02-05T22:30:20.276Z,8.38
2023-02-05T22:32:47.670Z,8.57
2023-02-05T22:35:15.049Z,7.88
2023-02-05T22:37:42.293Z,7.70
2023-02-05T22:40:09.894Z,9.32
2023-02-05T22:42:37.624Z,7.95
2023-02-05T22:45:05.717Z,6.97
2023-02-05T22:47:33.359Z,7.35
2023-02-05T22:50:02.100Z,7.38
2023-02-05T22:52:30.314Z,8.90
2023-02-05T22:54:57.543Z,7.80
2023-02-05T22:57:24.981Z,8.38
2023-02-05T22:59:52.193Z,7.35
2023-02-05T23:02:19.654Z,7.03
2023-02-05T23:04:47.026Z,7.05
2023-02-05T23:07:14.292Z,6.63
2023-02-05T23:09:41.624Z,5.63
2023-02-05T23:12:09.872Z,6.65
2023-02-05T23:14:37.143Z,5.78
2023-02-05T23:17:05.116Z,6.18
2023-02-05T23:19:32.480Z,5.25
2023-02-05T23:21:59.768Z,6.32
2023-02-05T23:24:27.012Z,6.13
2023-02-05T23:26:54.775Z,5.72
2023-02-05T23:29:22.336Z,7.32
2023-02-05T23:31:50.048Z,6.18
2023-02-05T23:34:17.340Z,5.07
2023-02-05T23:36:45.173Z,6.25
2023-02-05T23:39:12.439Z,6.78
2023-02-05T23:41:40.043Z,7.13
2023-02-05T23:44:20.193Z,6.90
2023-02-05T23:46:48.401Z,7.80
2023-02-05T23:49:15.956Z,7.57
2023-02-05T23:51:43.398Z,7.07
2023-02-05T23:54:11.129Z,7.22
2023-02-05T23:56:39.419Z,8.05
2023-02-05T23:59:07.778Z,7.93
